Etusivu
METAR-TAF:

METAR-TAF

Lentoasemat :

Atlanta, Georgia, Yhdysvallat

Leveyspiiri: 33-54-43N, Pituuspiiri: 084-56-26W, korkeus merenpinnasta: 393 m

Tämänhetkinen sää

Tämä raportti tehtiin 11 minuuttia sitten, kello 15.35 UTC
Tuuli 9 kn idästä puuskistuen 14 kn:hen
Lämpötila 11°C
Kosteus 100%
Ilmanpaine 1014 hPa
Näkyvyys: 16.1 km
Pilvistä 600 ft:n korkeudessa

METAR: KPUJ 191535Z AUTO 10009G14KT 10SM OVC006 11/11 A2995 RMK AO2

Aika: 11:46 (15:46 UTC)


TAF: puuttuu

Säähavainnot ja -ennusteet yli 4000 lentoasemalta (METAR- ja TAF-raportit).

Käytössä olevat sääasemat on merkitty karttaan keltaisilla ja punaisilla pisteillä.

Aseta hiiri pisteen päälle nähdäksesi sääaseman nimen.

Klikkaa sitten nähdäksesi säähavainnot ja -ennusteet.

Kartan vaihtaminen: klikkaa mustalla rastilla varustettuja vihreitä pisteitä, niin voit zoomata sisään; viivalla varustettua vihreää pistettä, niin voit zoomata ulos tai vihreitä nuolia, niin pääset viereisille kartoille.


METAR-TAF: